Doische, Belgium
Current Conditions -  °F | °C
As of 6:25 AM on Wednesday 26 Nov 2014 (Local Time) from EBFS Reporting Station
Broken Clouds Broken Clouds  
Wind Chill: 38°   Ceiling: 12000
Heat Index: 43°   Visibility: 4mi
Dew Point: 41°   Wind: 8mph
Humidity: 93%   Direction: 120°ESE
Pressure: 29.91"   Gusts: NA
Location:  50.13°N, 4.74°E
Report Text: EBFS 260525Z 12007KT 6000 SCT090 BKN120 06/05 Q1013 WHT WHT BECMG GRN
Loading
Personal Weather Stations






























Interactive Weather Map New forecast layout! Learn more

10-Day Weather Forecast

Advertisements
Track Severe Weather on mobile